sensor_id;sensor_type;location;lat;lon;timestamp;pressure;altitude;pressure_sealevel;temperature;humidity
54870;BME280;40756;-37.950;145.008;2023-07-31T00:00:51;101962.56;;;13.92;42.61
54870;BME280;40756;-37.950;145.008;2023-07-31T00:03:20;101965.01;;;14.01;43.95
54870;BME280;40756;-37.950;145.008;2023-07-31T00:05:50;101963.72;;;14.14;42.74
54870;BME280;40756;-37.950;145.008;2023-07-31T00:08:19;101960.66;;;14.64;41.73
54870;BME280;40756;-37.950;145.008;2023-07-31T00:10:52;101968.19;;;14.48;41.96
54870;BME280;40756;-37.950;145.008;2023-07-31T00:13:21;101968.01;;;13.87;42.11
54870;BME280;40756;-37.950;145.008;2023-07-31T00:15:51;101963.55;;;14.77;41.81
54870;BME280;40756;-37.950;145.008;2023-07-31T00:18:21;101966.15;;;13.72;42.30
54870;BME280;40756;-37.950;145.008;2023-07-31T00:20:50;101965.93;;;14.18;42.29
54870;BME280;40756;-37.950;145.008;2023-07-31T00:23:20;101966.72;;;13.91;42.30
54870;BME280;40756;-37.950;145.008;2023-07-31T00:25:50;101961.65;;;14.39;41.94
54870;BME280;40756;-37.950;145.008;2023-07-31T00:28:19;101962.53;;;14.66;41.47
54870;BME280;40756;-37.950;145.008;2023-07-31T00:30:48;101960.71;;;14.05;41.76
54870;BME280;40756;-37.950;145.008;2023-07-31T00:33:18;101968.22;;;14.55;41.70
54870;BME280;40756;-37.950;145.008;2023-07-31T00:35:48;101968.90;;;14.71;40.97
54870;BME280;40756;-37.950;145.008;2023-07-31T00:38:17;101973.08;;;14.66;41.63
54870;BME280;40756;-37.950;145.008;2023-07-31T00:40:47;101980.79;;;14.87;41.06
54870;BME280;40756;-37.950;145.008;2023-07-31T00:43:16;101975.72;;;15.02;40.80
54870;BME280;40756;-37.950;145.008;2023-07-31T00:45:45;101979.32;;;15.14;39.80
54870;BME280;40756;-37.950;145.008;2023-07-31T00:48:15;101984.90;;;14.69;40.11
54870;BME280;40756;-37.950;145.008;2023-07-31T00:50:44;101990.43;;;14.88;40.21
54870;BME280;40756;-37.950;145.008;2023-07-31T00:53:14;101985.31;;;15.11;40.51
54870;BME280;40756;-37.950;145.008;2023-07-31T00:55:44;101990.20;;;15.69;38.90
54870;BME280;40756;-37.950;145.008;2023-07-31T00:58:14;101991.91;;;15.54;38.61
54870;BME280;40756;-37.950;145.008;2023-07-31T01:00:44;101995.70;;;15.59;39.43
54870;BME280;40756;-37.950;145.008;2023-07-31T01:03:14;101994.06;;;16.03;39.22
54870;BME280;40756;-37.950;145.008;2023-07-31T01:05:53;102003.76;;;15.48;39.42
54870;BME280;40756;-37.950;145.008;2023-07-31T01:08:34;102004.17;;;15.46;38.45
54870;BME280;40756;-37.950;145.008;2023-07-31T01:11:11;101999.06;;;15.21;39.24
54870;BME280;40756;-37.950;145.008;2023-07-31T01:13:45;101994.89;;;15.83;38.73
54870;BME280;40756;-37.950;145.008;2023-07-31T01:16:15;101997.35;;;15.44;38.61
54870;BME280;40756;-37.950;145.008;2023-07-31T01:18:44;101994.40;;;15.23;39.13
54870;BME280;40756;-37.950;145.008;2023-07-31T01:21:30;101992.89;;;15.31;38.61
54870;BME280;40756;-37.950;145.008;2023-07-31T01:24:23;101992.68;;;15.58;38.43
54870;BME280;40756;-37.950;145.008;2023-07-31T01:27:02;101995.11;;;15.71;38.64
54870;BME280;40756;-37.950;145.008;2023-07-31T01:29:39;101993.21;;;15.42;39.81
54870;BME280;40756;-37.950;145.008;2023-07-31T01:32:12;101990.63;;;15.36;40.11
54870;BME280;40756;-37.950;145.008;2023-07-31T01:34:43;101985.41;;;14.99;39.37
54870;BME280;40756;-37.950;145.008;2023-07-31T01:37:13;101983.12;;;15.15;40.55
54870;BME280;40756;-37.950;145.008;2023-07-31T01:39:43;101980.65;;;15.51;39.85
54870;BME280;40756;-37.950;145.008;2023-07-31T01:42:12;101976.12;;;15.97;39.54
54870;BME280;40756;-37.950;145.008;2023-07-31T01:44:41;101969.15;;;16.03;39.82
54870;BME280;40756;-37.950;145.008;2023-07-31T01:47:11;101966.29;;;15.56;39.07
54870;BME280;40756;-37.950;145.008;2023-07-31T01:49:41;101962.13;;;15.22;39.30
54870;BME280;40756;-37.950;145.008;2023-07-31T01:52:10;101955.84;;;15.59;38.92
54870;BME280;40756;-37.950;145.008;2023-07-31T01:54:40;101954.42;;;15.93;39.08
54870;BME280;40756;-37.950;145.008;2023-07-31T01:57:09;101948.46;;;15.95;39.09
54870;BME280;40756;-37.950;145.008;2023-07-31T01:59:39;101945.79;;;16.17;39.56
54870;BME280;40756;-37.950;145.008;2023-07-31T02:02:09;101941.70;;;15.80;39.63
54870;BME280;40756;-37.950;145.008;2023-07-31T02:04:39;101940.28;;;15.63;40.00
54870;BME280;40756;-37.950;145.008;2023-07-31T02:07:08;101932.87;;;15.39;39.78
54870;BME280;40756;-37.950;145.008;2023-07-31T02:09:38;101930.13;;;15.71;39.96
54870;BME280;40756;-37.950;145.008;2023-07-31T02:12:08;101923.06;;;15.83;39.66
54870;BME280;40756;-37.950;145.008;2023-07-31T02:14:37;101919.80;;;15.98;39.20
54870;BME280;40756;-37.950;145.008;2023-07-31T02:17:07;101916.76;;;15.93;39.30
54870;BME280;40756;-37.950;145.008;2023-07-31T02:19:36;101915.09;;;15.89;39.17
54870;BME280;40756;-37.950;145.008;2023-07-31T02:22:06;101910.39;;;16.19;39.61
54870;BME280;40756;-37.950;145.008;2023-07-31T02:24:35;101907.63;;;16.04;39.08
54870;BME280;40756;-37.950;145.008;2023-07-31T02:27:05;101906.68;;;15.58;38.50
54870;BME280;40756;-37.950;145.008;2023-07-31T02:29:35;101901.41;;;15.61;39.15
54870;BME280;40756;-37.950;145.008;2023-07-31T02:32:05;101896.53;;;15.66;38.58
54870;BME280;40756;-37.950;145.008;2023-07-31T02:34:35;101891.13;;;15.03;38.96
54870;BME280;40756;-37.950;145.008;2023-07-31T02:37:05;101882.59;;;15.65;38.57
54870;BME280;40756;-37.950;145.008;2023-07-31T02:39:34;101875.44;;;15.91;37.94
54870;BME280;40756;-37.950;145.008;2023-07-31T02:42:04;101877.13;;;15.32;39.31
54870;BME280;40756;-37.950;145.008;2023-07-31T02:44:34;101867.91;;;16.24;37.86
54870;BME280;40756;-37.950;145.008;2023-07-31T02:47:09;101863.93;;;16.63;36.91
54870;BME280;40756;-37.950;145.008;2023-07-31T02:49:38;101862.32;;;17.01;36.37
54870;BME280;40756;-37.950;145.008;2023-07-31T02:52:08;101862.86;;;17.37;36.45
54870;BME280;40756;-37.950;145.008;2023-07-31T02:54:37;101858.99;;;16.69;35.49
54870;BME280;40756;-37.950;145.008;2023-07-31T02:57:07;101858.37;;;17.40;34.71
54870;BME280;40756;-37.950;145.008;2023-07-31T02:59:37;101857.13;;;16.59;34.95
54870;BME280;40756;-37.950;145.008;2023-07-31T03:02:06;101854.89;;;17.39;34.85
54870;BME280;40756;-37.950;145.008;2023-07-31T03:04:36;101852.11;;;16.92;35.38
54870;BME280;40756;-37.950;145.008;2023-07-31T03:07:06;101844.79;;;16.88;35.63
54870;BME280;40756;-37.950;145.008;2023-07-31T03:09:35;101852.29;;;16.39;36.44
54870;BME280;40756;-37.950;145.008;2023-07-31T03:12:06;101853.81;;;15.93;37.27
54870;BME280;40756;-37.950;145.008;2023-07-31T03:14:35;101847.81;;;15.71;37.13
54870;BME280;40756;-37.950;145.008;2023-07-31T03:17:06;101842.83;;;16.53;36.77
54870;BME280;40756;-37.950;145.008;2023-07-31T03:19:35;101836.74;;;16.16;36.32
54870;BME280;40756;-37.950;145.008;2023-07-31T03:22:05;101831.73;;;16.78;36.50
54870;BME280;40756;-37.950;145.008;2023-07-31T03:24:35;101821.17;;;16.35;37.23
54870;BME280;40756;-37.950;145.008;2023-07-31T03:27:05;101818.25;;;16.19;36.37
54870;BME280;40756;-37.950;145.008;2023-07-31T03:29:35;101816.02;;;17.34;35.71
54870;BME280;40756;-37.950;145.008;2023-07-31T03:32:04;101812.96;;;16.82;35.03
54870;BME280;40756;-37.950;145.008;2023-07-31T03:34:34;101808.74;;;17.16;35.25
54870;BME280;40756;-37.950;145.008;2023-07-31T03:37:04;101815.19;;;16.29;35.13
54870;BME280;40756;-37.950;145.008;2023-07-31T03:39:34;101807.24;;;17.34;34.53
54870;BME280;40756;-37.950;145.008;2023-07-31T03:42:03;101802.48;;;17.41;34.45
54870;BME280;40756;-37.950;145.008;2023-07-31T03:44:33;101800.04;;;17.50;34.00
54870;BME280;40756;-37.950;145.008;2023-07-31T03:47:02;101792.74;;;17.07;34.56
54870;BME280;40756;-37.950;145.008;2023-07-31T03:49:32;101790.36;;;18.14;33.74
54870;BME280;40756;-37.950;145.008;2023-07-31T03:52:01;101792.44;;;17.64;34.09
54870;BME280;40756;-37.950;145.008;2023-07-31T03:54:31;101788.84;;;16.90;34.73
54870;BME280;40756;-37.950;145.008;2023-07-31T03:57:00;101793.17;;;17.36;34.77
54870;BME280;40756;-37.950;145.008;2023-07-31T03:59:30;101790.64;;;17.55;34.96
54870;BME280;40756;-37.950;145.008;2023-07-31T04:01:59;101784.74;;;18.03;34.07
54870;BME280;40756;-37.950;145.008;2023-07-31T04:04:29;101785.27;;;18.30;33.38
54870;BME280;40756;-37.950;145.008;2023-07-31T04:06:59;101777.04;;;18.51;32.91
54870;BME280;40756;-37.950;145.008;2023-07-31T04:09:29;101783.18;;;18.68;32.22
54870;BME280;40756;-37.950;145.008;2023-07-31T04:11:59;101782.89;;;16.95;33.48
54870;BME280;40756;-37.950;145.008;2023-07-31T04:14:28;101780.05;;;17.10;33.78
54870;BME280;40756;-37.950;145.008;2023-07-31T04:16:57;101774.37;;;17.45;34.04
54870;BME280;40756;-37.950;145.008;2023-07-31T04:19:27;101776.96;;;17.33;34.14
54870;BME280;40756;-37.950;145.008;2023-07-31T04:21:57;101770.53;;;18.13;33.65
54870;BME280;40756;-37.950;145.008;2023-07-31T04:24:26;101774.19;;;17.67;33.55
54870;BME280;40756;-37.950;145.008;2023-07-31T04:26:57;101765.18;;;18.22;32.67
54870;BME280;40756;-37.950;145.008;2023-07-31T04:29:26;101764.99;;;18.91;32.25
54870;BME280;40756;-37.950;145.008;2023-07-31T04:31:55;101759.86;;;19.07;32.35
54870;BME280;40756;-37.950;145.008;2023-07-31T04:34:25;101761.07;;;18.14;33.00
54870;BME280;40756;-37.950;145.008;2023-07-31T04:36:54;101760.61;;;18.47;33.46
54870;BME280;40756;-37.950;145.008;2023-07-31T04:39:23;101766.43;;;18.18;33.32
54870;BME280;40756;-37.950;145.008;2023-07-31T04:41:53;101765.65;;;17.96;33.00
54870;BME280;40756;-37.950;145.008;2023-07-31T04:44:22;101765.14;;;17.51;33.16
54870;BME280;40756;-37.950;145.008;2023-07-31T04:46:52;101766.31;;;16.99;33.34
54870;BME280;40756;-37.950;145.008;2023-07-31T04:49:22;101768.28;;;17.44;33.24
54870;BME280;40756;-37.950;145.008;2023-07-31T04:51:51;101758.57;;;17.87;33.03
54870;BME280;40756;-37.950;145.008;2023-07-31T04:54:21;101760.11;;;18.34;32.81
54870;BME280;40756;-37.950;145.008;2023-07-31T04:56:50;101763.05;;;18.21;32.69
54870;BME280;40756;-37.950;145.008;2023-07-31T04:59:20;101770.53;;;17.70;32.93
54870;BME280;40756;-37.950;145.008;2023-07-31T05:01:49;101769.07;;;16.92;33.57
54870;BME280;40756;-37.950;145.008;2023-07-31T05:04:19;101765.21;;;16.71;34.30
54870;BME280;40756;-37.950;145.008;2023-07-31T05:06:48;101772.69;;;16.43;34.97
54870;BME280;40756;-37.950;145.008;2023-07-31T05:09:19;101767.34;;;17.25;34.61
54870;BME280;40756;-37.950;145.008;2023-07-31T05:11:48;101767.53;;;16.84;34.73
54870;BME280;40756;-37.950;145.008;2023-07-31T05:14:18;101758.58;;;17.02;34.69
54870;BME280;40756;-37.950;145.008;2023-07-31T05:16:48;101753.01;;;16.69;35.17
54870;BME280;40756;-37.950;145.008;2023-07-31T05:19:17;101760.52;;;15.78;35.70
54870;BME280;40756;-37.950;145.008;2023-07-31T05:21:47;101764.17;;;16.52;35.71
54870;BME280;40756;-37.950;145.008;2023-07-31T05:24:16;101762.71;;;16.66;35.70
54870;BME280;40756;-37.950;145.008;2023-07-31T05:26:46;101748.50;;;17.04;35.48
54870;BME280;40756;-37.950;145.008;2023-07-31T05:29:15;101746.29;;;16.52;36.16
54870;BME280;40756;-37.950;145.008;2023-07-31T05:31:45;101733.12;;;16.81;36.03
54870;BME280;40756;-37.950;145.008;2023-07-31T05:34:15;101734.38;;;16.57;36.47
54870;BME280;40756;-37.950;145.008;2023-07-31T05:36:44;101735.88;;;16.04;36.10
54870;BME280;40756;-37.950;145.008;2023-07-31T05:39:14;101737.04;;;16.83;36.15
54870;BME280;40756;-37.950;145.008;2023-07-31T05:41:43;101737.39;;;16.88;35.31
54870;BME280;40756;-37.950;145.008;2023-07-31T05:44:13;101740.92;;;17.06;34.89
54870;BME280;40756;-37.950;145.008;2023-07-31T05:46:42;101743.05;;;16.96;36.13
54870;BME280;40756;-37.950;145.008;2023-07-31T05:49:11;101740.43;;;16.95;34.99
54870;BME280;40756;-37.950;145.008;2023-07-31T05:51:41;101740.08;;;16.87;35.47
54870;BME280;40756;-37.950;145.008;2023-07-31T05:54:11;101742.53;;;16.91;34.47
54870;BME280;40756;-37.950;145.008;2023-07-31T05:56:40;101756.41;;;17.29;34.44
54870;BME280;40756;-37.950;145.008;2023-07-31T05:59:11;101752.23;;;17.16;34.70
54870;BME280;40756;-37.950;145.008;2023-07-31T06:01:41;101768.69;;;16.99;35.04
54870;BME280;40756;-37.950;145.008;2023-07-31T06:04:11;101777.39;;;16.44;35.91
54870;BME280;40756;-37.950;145.008;2023-07-31T06:06:40;101793.25;;;16.05;36.36
54870;BME280;40756;-37.950;145.008;2023-07-31T06:09:10;101788.96;;;16.00;36.68
54870;BME280;40756;-37.950;145.008;2023-07-31T06:11:40;101793.00;;;16.32;36.58
54870;BME280;40756;-37.950;145.008;2023-07-31T06:14:10;101801.03;;;15.75;37.20
54870;BME280;40756;-37.950;145.008;2023-07-31T06:16:39;101804.45;;;15.99;37.16
54870;BME280;40756;-37.950;145.008;2023-07-31T06:19:09;101803.76;;;16.38;37.46
54870;BME280;40756;-37.950;145.008;2023-07-31T06:21:39;101808.64;;;16.39;37.16
54870;BME280;40756;-37.950;145.008;2023-07-31T06:24:08;101811.08;;;15.86;37.83
54870;BME280;40756;-37.950;145.008;2023-07-31T06:26:38;101813.94;;;16.00;37.83
54870;BME280;40756;-37.950;145.008;2023-07-31T06:29:07;101822.25;;;15.69;38.02
54870;BME280;40756;-37.950;145.008;2023-07-31T06:31:37;101813.34;;;15.65;38.68
54870;BME280;40756;-37.950;145.008;2023-07-31T06:34:06;101814.77;;;16.14;38.42
54870;BME280;40756;-37.950;145.008;2023-07-31T06:36:36;101808.68;;;15.90;37.89
54870;BME280;40756;-37.950;145.008;2023-07-31T06:39:06;101808.51;;;15.62;38.66
54870;BME280;40756;-37.950;145.008;2023-07-31T06:41:35;101817.30;;;16.26;37.52
54870;BME280;40756;-37.950;145.008;2023-07-31T06:44:05;101818.34;;;16.18;37.12
54870;BME280;40756;-37.950;145.008;2023-07-31T06:46:34;101827.74;;;15.40;37.16
54870;BME280;40756;-37.950;145.008;2023-07-31T06:49:04;101825.31;;;16.07;37.29
54870;BME280;40756;-37.950;145.008;2023-07-31T06:51:34;101823.69;;;15.32;37.60
54870;BME280;40756;-37.950;145.008;2023-07-31T06:54:03;101814.43;;;15.60;38.19
54870;BME280;40756;-37.950;145.008;2023-07-31T06:56:33;101815.60;;;15.08;38.75
54870;BME280;40756;-37.950;145.008;2023-07-31T06:59:02;101801.20;;;15.24;38.50
54870;BME280;40756;-37.950;145.008;2023-07-31T07:01:32;101796.03;;;14.91;38.58
54870;BME280;40756;-37.950;145.008;2023-07-31T07:04:02;101786.99;;;14.98;38.87
54870;BME280;40756;-37.950;145.008;2023-07-31T07:06:31;101791.08;;;15.10;38.49
54870;BME280;40756;-37.950;145.008;2023-07-31T07:09:01;101799.43;;;14.91;38.35
54870;BME280;40756;-37.950;145.008;2023-07-31T07:11:30;101807.27;;;15.42;37.86
54870;BME280;40756;-37.950;145.008;2023-07-31T07:14:01;101831.40;;;16.45;40.21
54870;BME280;40756;-37.950;145.008;2023-07-31T07:16:31;101838.86;;;16.05;37.76
54870;BME280;40756;-37.950;145.008;2023-07-31T07:19:00;101840.08;;;16.66;38.34
54870;BME280;40756;-37.950;145.008;2023-07-31T07:21:30;101837.79;;;16.86;36.77
54870;BME280;40756;-37.950;145.008;2023-07-31T07:23:59;101843.22;;;16.78;36.00
54870;BME280;40756;-37.950;145.008;2023-07-31T07:26:29;101838.70;;;16.09;36.41
54870;BME280;40756;-37.950;145.008;2023-07-31T07:28:58;101833.55;;;15.69;37.08
54870;BME280;40756;-37.950;145.008;2023-07-31T07:31:28;101832.97;;;15.88;37.16
54870;BME280;40756;-37.950;145.008;2023-07-31T07:33:58;101833.29;;;15.72;37.50
54870;BME280;40756;-37.950;145.008;2023-07-31T07:36:28;101830.20;;;15.25;38.05
54870;BME280;40756;-37.950;145.008;2023-07-31T07:38:58;101835.31;;;15.54;38.16
54870;BME280;40756;-37.950;145.008;2023-07-31T07:41:27;101845.23;;;15.17;38.60
54870;BME280;40756;-37.950;145.008;2023-07-31T07:43:57;101845.65;;;15.37;38.80
54870;BME280;40756;-37.950;145.008;2023-07-31T07:46:27;101850.34;;;15.12;39.22
54870;BME280;40756;-37.950;145.008;2023-07-31T07:48:56;101851.24;;;14.91;39.36
54870;BME280;40756;-37.950;145.008;2023-07-31T07:51:26;101859.22;;;14.73;39.69
54870;BME280;40756;-37.950;145.008;2023-07-31T07:53:55;101857.59;;;15.12;39.27
54870;BME280;40756;-37.950;145.008;2023-07-31T07:56:27;101861.50;;;15.22;39.13
54870;BME280;40756;-37.950;145.008;2023-07-31T07:58:56;101866.64;;;14.81;39.75
54870;BME280;40756;-37.950;145.008;2023-07-31T08:01:26;101866.02;;;14.94;39.62
54870;BME280;40756;-37.950;145.008;2023-07-31T08:03:56;101870.23;;;15.02;39.65
54870;BME280;40756;-37.950;145.008;2023-07-31T08:06:26;101875.76;;;15.01;39.62
54870;BME280;40756;-37.950;145.008;2023-07-31T08:08:55;101887.27;;;14.89;40.13
54870;BME280;40756;-37.950;145.008;2023-07-31T08:11:25;101891.80;;;15.44;39.32
54870;BME280;40756;-37.950;145.008;2023-07-31T08:13:54;101891.96;;;14.84;39.99
54870;BME280;40756;-37.950;145.008;2023-07-31T08:16:24;101890.32;;;14.33;41.00
54870;BME280;40756;-37.950;145.008;2023-07-31T08:18:54;101893.80;;;14.35;41.07
54870;BME280;40756;-37.950;145.008;2023-07-31T08:21:24;101896.03;;;14.74;40.82
54870;BME280;40756;-37.950;145.008;2023-07-31T08:23:54;101893.74;;;14.46;41.22
54870;BME280;40756;-37.950;145.008;2023-07-31T08:26:23;101880.28;;;15.07;40.84
54870;BME280;40756;-37.950;145.008;2023-07-31T08:28:53;101879.22;;;14.21;41.73
54870;BME280;40756;-37.950;145.008;2023-07-31T08:31:22;101892.31;;;14.65;41.83
54870;BME280;40756;-37.950;145.008;2023-07-31T08:33:52;101901.27;;;14.64;41.32
54870;BME280;40756;-37.950;145.008;2023-07-31T08:36:22;101903.99;;;14.37;41.72
54870;BME280;40756;-37.950;145.008;2023-07-31T08:38:51;101909.00;;;14.44;42.31
54870;BME280;40756;-37.950;145.008;2023-07-31T08:41:21;101902.14;;;14.92;42.03
54870;BME280;40756;-37.950;145.008;2023-07-31T08:43:51;101906.86;;;14.04;43.35
54870;BME280;40756;-37.950;145.008;2023-07-31T08:46:22;101911.93;;;15.27;43.21
54870;BME280;40756;-37.950;145.008;2023-07-31T08:48:52;101913.66;;;15.33;40.97
54870;BME280;40756;-37.950;145.008;2023-07-31T08:51:22;101919.45;;;15.02;40.95
54870;BME280;40756;-37.950;145.008;2023-07-31T08:53:53;101923.73;;;15.23;41.42
54870;BME280;40756;-37.950;145.008;2023-07-31T08:56:22;101922.95;;;15.11;40.71
54870;BME280;40756;-37.950;145.008;2023-07-31T08:58:53;101925.03;;;15.17;40.76
54870;BME280;40756;-37.950;145.008;2023-07-31T09:01:23;101930.76;;;14.78;41.07
54870;BME280;40756;-37.950;145.008;2023-07-31T09:03:53;101933.49;;;14.83;41.35
54870;BME280;40756;-37.950;145.008;2023-07-31T09:06:24;101935.42;;;14.74;41.39
54870;BME280;40756;-37.950;145.008;2023-07-31T09:08:55;101936.21;;;14.85;41.31
54870;BME280;40756;-37.950;145.008;2023-07-31T09:11:25;101936.28;;;14.68;41.71
54870;BME280;40756;-37.950;145.008;2023-07-31T09:13:58;101946.27;;;14.85;41.45
54870;BME280;40756;-37.950;145.008;2023-07-31T09:16:29;101943.45;;;14.79;41.61
54870;BME280;40756;-37.950;145.008;2023-07-31T09:18:59;101953.34;;;14.14;44.13
54870;BME280;40756;-37.950;145.008;2023-07-31T09:21:29;101963.98;;;14.60;41.96
54870;BME280;40756;-37.950;145.008;2023-07-31T09:23:58;101962.38;;;14.59;42.15
54870;BME280;40756;-37.950;145.008;2023-07-31T09:26:32;101959.80;;;14.79;41.78
54870;BME280;40756;-37.950;145.008;2023-07-31T09:29:05;101962.37;;;14.75;41.59
54870;BME280;40756;-37.950;145.008;2023-07-31T09:31:41;101967.05;;;14.88;41.85
54870;BME280;40756;-37.950;145.008;2023-07-31T09:34:10;101951.31;;;14.53;42.18
54870;BME280;40756;-37.950;145.008;2023-07-31T09:36:43;101958.22;;;14.41;42.07
54870;BME280;40756;-37.950;145.008;2023-07-31T09:39:14;101973.32;;;13.93;42.83
54870;BME280;40756;-37.950;145.008;2023-07-31T09:41:46;101974.16;;;14.32;42.50
54870;BME280;40756;-37.950;145.008;2023-07-31T09:44:16;101988.33;;;14.65;42.03
54870;BME280;40756;-37.950;145.008;2023-07-31T09:46:45;101990.87;;;14.49;42.13
54870;BME280;40756;-37.950;145.008;2023-07-31T09:49:15;101994.82;;;14.27;42.40
54870;BME280;40756;-37.950;145.008;2023-07-31T09:51:45;102000.17;;;14.81;41.65
54870;BME280;40756;-37.950;145.008;2023-07-31T09:54:15;102003.25;;;14.98;41.47
54870;BME280;40756;-37.950;145.008;2023-07-31T09:56:46;102010.30;;;14.53;42.03
54870;BME280;40756;-37.950;145.008;2023-07-31T09:59:18;102015.38;;;14.63;42.15
54870;BME280;40756;-37.950;145.008;2023-07-31T10:01:48;102022.04;;;14.46;42.12
54870;BME280;40756;-37.950;145.008;2023-07-31T10:04:19;102025.82;;;14.52;42.37
54870;BME280;40756;-37.950;145.008;2023-07-31T10:06:51;102028.82;;;14.36;42.39
54870;BME280;40756;-37.950;145.008;2023-07-31T10:09:25;102033.05;;;13.92;42.81
54870;BME280;40756;-37.950;145.008;2023-07-31T10:12:02;102034.58;;;14.90;41.66
54870;BME280;40756;-37.950;145.008;2023-07-31T10:14:35;102040.83;;;14.00;42.89
54870;BME280;40756;-37.950;145.008;2023-07-31T10:17:06;102043.08;;;14.19;42.79
54870;BME280;40756;-37.950;145.008;2023-07-31T10:19:36;102042.68;;;15.03;42.25
54870;BME280;40756;-37.950;145.008;2023-07-31T10:22:06;102042.34;;;15.00;41.80
54870;BME280;40756;-37.950;145.008;2023-07-31T10:24:37;102047.81;;;13.92;43.03
54870;BME280;40756;-37.950;145.008;2023-07-31T10:27:08;102042.79;;;14.51;42.72
54870;BME280;40756;-37.950;145.008;2023-07-31T10:29:39;102042.07;;;14.84;42.13
54870;BME280;40756;-37.950;145.008;2023-07-31T10:32:10;102049.00;;;14.67;42.59
54870;BME280;40756;-37.950;145.008;2023-07-31T10:34:41;102056.28;;;14.62;42.84
54870;BME280;40756;-37.950;145.008;2023-07-31T10:37:29;102063.86;;;14.51;42.69
54870;BME280;40756;-37.950;145.008;2023-07-31T10:40:00;102056.36;;;14.90;42.40
54870;BME280;40756;-37.950;145.008;2023-07-31T10:42:32;102054.02;;;14.49;42.65
54870;BME280;40756;-37.950;145.008;2023-07-31T10:45:03;102043.85;;;14.12;43.07
54870;BME280;40756;-37.950;145.008;2023-07-31T10:47:38;102046.69;;;14.31;43.38
54870;BME280;40756;-37.950;145.008;2023-07-31T10:50:21;102047.76;;;14.09;43.51
54870;BME280;40756;-37.950;145.008;2023-07-31T10:52:51;102043.87;;;14.63;42.46
54870;BME280;40756;-37.950;145.008;2023-07-31T10:55:29;102039.31;;;14.14;43.16
54870;BME280;40756;-37.950;145.008;2023-07-31T10:58:07;102030.03;;;14.37;43.62
54870;BME280;40756;-37.950;145.008;2023-07-31T11:00:39;102028.39;;;14.15;43.06
54870;BME280;40756;-37.950;145.008;2023-07-31T11:03:10;102038.92;;;14.87;42.83
54870;BME280;40756;-37.950;145.008;2023-07-31T11:05:47;102046.41;;;14.11;43.19
54870;BME280;40756;-37.950;145.008;2023-07-31T11:08:19;102048.40;;;14.29;43.37
54870;BME280;40756;-37.950;145.008;2023-07-31T11:10:50;102049.93;;;14.24;43.21
54870;BME280;40756;-37.950;145.008;2023-07-31T11:13:20;102049.63;;;14.05;43.36
54870;BME280;40756;-37.950;145.008;2023-07-31T11:15:49;102063.73;;;14.39;43.37
54870;BME280;40756;-37.950;145.008;2023-07-31T11:18:19;102070.77;;;14.74;43.21
54870;BME280;40756;-37.950;145.008;2023-07-31T11:20:48;102076.72;;;14.67;43.24
54870;BME280;40756;-37.950;145.008;2023-07-31T11:23:19;102085.51;;;14.49;43.11
54870;BME280;40756;-37.950;145.008;2023-07-31T11:25:50;102096.53;;;14.00;43.39
54870;BME280;40756;-37.950;145.008;2023-07-31T11:28:20;102099.30;;;14.28;43.14
54870;BME280;40756;-37.950;145.008;2023-07-31T11:30:50;102097.00;;;14.69;42.52
54870;BME280;40756;-37.950;145.008;2023-07-31T11:33:20;102093.86;;;14.49;43.13
54870;BME280;40756;-37.950;145.008;2023-07-31T11:35:50;102094.53;;;14.14;43.75
54870;BME280;40756;-37.950;145.008;2023-07-31T11:38:25;102099.23;;;13.91;43.62
54870;BME280;40756;-37.950;145.008;2023-07-31T11:40:57;102096.63;;;14.59;43.13
54870;BME280;40756;-37.950;145.008;2023-07-31T11:43:26;102091.37;;;14.78;42.88
54870;BME280;40756;-37.950;145.008;2023-07-31T11:45:58;102096.02;;;14.45;43.17
54870;BME280;40756;-37.950;145.008;2023-07-31T11:48:30;102097.59;;;14.83;42.66
54870;BME280;40756;-37.950;145.008;2023-07-31T11:51:00;102097.63;;;14.77;42.83
54870;BME280;40756;-37.950;145.008;2023-07-31T11:53:35;102106.32;;;14.59;42.96
54870;BME280;40756;-37.950;145.008;2023-07-31T11:56:08;102109.79;;;14.55;43.11
54870;BME280;40756;-37.950;145.008;2023-07-31T11:58:38;102116.57;;;14.73;42.85
54870;BME280;40756;-37.950;145.008;2023-07-31T12:01:09;102115.41;;;14.95;42.50
54870;BME280;40756;-37.950;145.008;2023-07-31T12:03:39;102112.39;;;15.39;41.85
54870;BME280;40756;-37.950;145.008;2023-07-31T12:06:08;102115.34;;;14.72;42.54
54870;BME280;40756;-37.950;145.008;2023-07-31T12:08:38;102119.97;;;15.13;42.32
54870;BME280;40756;-37.950;145.008;2023-07-31T12:11:10;102116.06;;;14.89;42.68
54870;BME280;40756;-37.950;145.008;2023-07-31T12:13:39;102113.52;;;14.65;42.84
54870;BME280;40756;-37.950;145.008;2023-07-31T12:16:09;102121.67;;;14.53;43.23
54870;BME280;40756;-37.950;145.008;2023-07-31T12:18:39;102122.28;;;14.98;42.54
54870;BME280;40756;-37.950;145.008;2023-07-31T12:21:09;102120.79;;;14.63;43.04
54870;BME280;40756;-37.950;145.008;2023-07-31T12:23:39;102121.34;;;14.72;43.21
54870;BME280;40756;-37.950;145.008;2023-07-31T12:26:11;102121.68;;;15.35;42.20
54870;BME280;40756;-37.950;145.008;2023-07-31T12:28:43;102123.92;;;14.72;42.84
54870;BME280;40756;-37.950;145.008;2023-07-31T12:31:14;102123.14;;;15.28;42.48
54870;BME280;40756;-37.950;145.008;2023-07-31T12:33:45;102131.77;;;14.74;43.03
54870;BME280;40756;-37.950;145.008;2023-07-31T12:36:17;102124.20;;;14.80;42.79